Meteo Giornale » Osservazioni meteo Svizzera » Lugano

ore: 10:50 - Osservazioni Meteo Lugano
Lat. 46° 0' N Lon. 8° 58' E Alt. 273 metri s.l.m.

sereno Europe/Zurich

15 °C

Sereno

Temp. 24 Ore

5 °C

20 °C

Nord

3.7 Km/h

Dew point 5 °C

Umidità 51 %

Visibilità  10 Km

Il sole sorge alle ore 07:06

Il sole tramonta alle ore 19:50

Data e Ora Cielo e Fenomeni T °C DP °C Um. % Pres. hPa Vis. km Vento km/h
Oggi h: 10:50 sereno Sereno 15 5 51 1026 10 N 3.7
Oggi h: 10:20 sereno Sereno 13 6 62 1025 10 N 1.8
Oggi h: 09:50 sereno Sereno 12 5 62 1025 10 N 1.8
Oggi h: 09:20 sereno Sereno 9 5 75 1025 10 N 3.7
Oggi h: 08:50 sereno Sereno 6 5 93 1025 10 N 1.8
Oggi h: 08:20 sereno Sereno 5 4 93 1025 10 N 1.8
Oggi h: 07:50 sereno Sereno 6 4 86 1025 10 N 1.8
Oggi h: 07:20 sereno Sereno 5 4 93 1025 10 N 3.7
Oggi h: 06:50 sereno Sereno 5 4 93 1024 10 N 1.8
Oggi h: 06:20 sereno Sereno 5 4 93 1024 10 N 3.7
Oggi h: 05:50 sereno Sereno 5 4 93 1024 10 N 3.7
Oggi h: 05:20 sereno Sereno 5 4 93 1024 10 N 5.5
Oggi h: 04:50 sereno Sereno 6 5 93 1024 10 N 3.7
Oggi h: 04:20 sereno Sereno 6 4 86 1024 10 N 5.5
Oggi h: 03:50 sereno Sereno 6 4 86 1024 10 N 3.7
Oggi h: 03:20 sereno Sereno 7 5 87 1024 10 N 3.7
Oggi h: 02:50 sereno Sereno 6 5 93 1024 10 N 5.5
Oggi h: 02:20 sereno Sereno 7 5 87 1024 10 N 1.8
Oggi h: 01:50 sereno Sereno 7 5 87 1024 10 N 1.8
Oggi h: 01:20 sereno Sereno 8 5 81 1024 10 N 3.7
Oggi h: 00:50 sereno Sereno 9 5 75 1024 10 N 1.8
Oggi h: 00:20 sereno Sereno 9 5 75 1024 10 N 3.7
Ieri h: 23:50 sereno Sereno 9 5 75 1024 10 N 1.8
Ieri h: 23:20 sereno Sereno 9 5 75 1024 10 N 1.8
Ieri h: 22:50 sereno Sereno 10 5 71 1024 10 N 1.8
Ieri h: 22:20 sereno Sereno 11 5 66 1024 10 N 1.8
Ieri h: 21:50 sereno Sereno 11 6 71 1024 10 N 1.8
Ieri h: 21:20 sereno Sereno 12 5 62 1023 10 N 1.8
Ieri h: 20:50 sereno Sereno 12 6 66 1023 10 N 3.7
Ieri h: 20:20 sereno Sereno 14 5 54 1023 10 N 3.7
Ieri h: 19:50 sereno Sereno 16 4 44 1022 10 N 3.7
Ieri h: 19:20 sereno Sereno 17 4 41 1022 10 S/SO 9.3
Ieri h: 18:50 sereno Sereno 18 4 39 1022 10 S/SO 13
Ieri h: 18:20 sereno Sereno 19 5 39 1022 10 S/SO 14.8
Ieri h: 17:50 sereno Sereno 19 5 39 1023 10 S/SO 14.8
Ieri h: 17:20 sereno Sereno 19 5 39 1023 10 S/SO 14.8
Ieri h: 16:50 sereno Sereno 19 5 39 1023 10 S/SO 14.8
Ieri h: 16:20 sereno Sereno 19 5 39 1023 10 S/SO 14.8
Ieri h: 15:50 sereno Sereno 20 4 34 1022 10 S/SO 16.7
Ieri h: 15:20 sereno Sereno 20 3 32 1023 10 S/SO 14.8
Ieri h: 14:50 sereno Sereno 19 5 39 1023 10 S/SO 14.8
Ieri h: 14:20 sereno Sereno 9 5 75 1025 10 N 3.7
Ieri h: 13:50 sereno Sereno 9 5 75 1025 10 N 3.7
Ieri h: 13:20 sereno Sereno 9 5 75 1025 10 N 3.7
Ieri h: 12:50 sereno Sereno 9 5 75 1025 10 N 3.7
Ieri h: 12:20 sereno Sereno 9 5 75 1025 10 N 3.7
Ieri h: 11:50 sereno Sereno 9 5 75 1025 10 N 3.7